createdAt,value
2019-03-04T00:02:25.847Z,85.78
2019-03-04T00:04:55.448Z,86.18
2019-03-04T00:07:25.103Z,86.94
2019-03-04T00:09:54.720Z,89.43
2019-03-04T00:12:24.418Z,88.82
2019-03-04T00:14:54.101Z,89.77
2019-03-04T00:17:23.721Z,89.30
2019-03-04T00:19:53.323Z,86.70
2019-03-04T00:22:22.915Z,83.67
2019-03-04T00:24:52.699Z,85.60
2019-03-04T00:27:22.358Z,81.47
2019-03-04T00:29:51.956Z,82.27
2019-03-04T00:32:21.639Z,84.79
2019-03-04T00:34:51.278Z,83.18
2019-03-04T00:37:20.909Z,82.66
2019-03-04T00:39:50.484Z,80.04
2019-03-04T00:42:20.174Z,82.27
2019-03-04T00:44:49.876Z,80.19
2019-03-04T00:47:20.590Z,80.32
2019-03-04T00:49:50.266Z,77.59
2019-03-04T00:52:19.878Z,77.51
2019-03-04T00:54:49.451Z,74.28
2019-03-04T00:57:19.048Z,75.74
2019-03-04T00:59:48.674Z,76.07
2019-03-04T01:02:18.333Z,78.72
2019-03-04T01:04:47.960Z,79.98
2019-03-04T01:07:17.653Z,80.06
2019-03-04T01:09:47.245Z,85.69
2019-03-04T01:12:16.889Z,89.25
2019-03-04T01:14:46.617Z,91.60
2019-03-04T01:17:16.218Z,93.53
2019-03-04T01:19:45.806Z,94.67
2019-03-04T01:22:15.454Z,94.41
2019-03-04T01:24:45.103Z,99.88
2019-03-04T01:27:14.752Z,100.00
2019-03-04T01:29:44.322Z,99.35
2019-03-04T01:32:13.916Z,100.00
2019-03-04T01:34:43.531Z,100.00
2019-03-04T01:37:13.113Z,100.00
2019-03-04T01:39:42.731Z,99.75
2019-03-04T01:42:12.347Z,100.00
2019-03-04T01:44:41.943Z,100.00
2019-03-04T01:47:11.535Z,100.00
2019-03-04T01:49:41.124Z,100.00
2019-03-04T01:52:10.790Z,100.00
2019-03-04T01:54:40.381Z,100.00
2019-03-04T01:57:09.968Z,100.00
2019-03-04T01:59:39.567Z,100.00
2019-03-04T02:02:09.170Z,100.00
2019-03-04T02:04:38.838Z,100.00
2019-03-04T02:07:08.440Z,100.00
2019-03-04T02:09:38.061Z,100.00
2019-03-04T02:12:07.679Z,100.00
2019-03-04T02:14:37.271Z,100.00
2019-03-04T02:17:06.920Z,100.00
2019-03-04T02:19:36.522Z,100.00
2019-03-04T02:22:06.104Z,100.00
2019-03-04T02:24:35.722Z,100.00
2019-03-04T02:27:05.471Z,100.00
2019-03-04T02:29:35.116Z,100.00
2019-03-04T02:32:04.738Z,100.00
2019-03-04T02:34:34.352Z,100.00
2019-03-04T02:37:03.965Z,100.00
2019-03-04T02:39:33.604Z,100.00
2019-03-04T02:42:03.224Z,100.00
2019-03-04T02:44:32.804Z,100.00
2019-03-04T02:47:02.424Z,100.00
2019-03-04T02:49:32.026Z,99.30
2019-03-04T02:52:01.620Z,99.46
2019-03-04T02:54:31.274Z,100.00
2019-03-04T02:57:00.854Z,100.00
2019-03-04T02:59:30.456Z,100.00
2019-03-04T03:02:00.065Z,100.00
2019-03-04T03:04:29.628Z,100.00
2019-03-04T03:06:59.287Z,100.00
2019-03-04T03:09:28.987Z,100.00
2019-03-04T03:11:58.592Z,100.00
2019-03-04T03:14:28.286Z,100.00
2019-03-04T03:16:57.936Z,100.00
2019-03-04T03:19:27.591Z,100.00
2019-03-04T03:21:57.203Z,100.00
2019-03-04T03:24:26.794Z,100.00
2019-03-04T03:26:56.409Z,100.00
2019-03-04T03:29:26.000Z,100.00
2019-03-04T03:31:55.672Z,100.00
2019-03-04T03:34:25.403Z,100.00
2019-03-04T03:36:55.002Z,100.00
2019-03-04T03:39:24.648Z,100.00
2019-03-04T03:41:54.249Z,100.00
2019-03-04T03:44:23.980Z,100.00
2019-03-04T03:46:53.681Z,100.00
2019-03-04T03:49:23.254Z,100.00
2019-03-04T03:51:52.920Z,100.00
2019-03-04T03:54:22.518Z,100.00
2019-03-04T03:56:52.155Z,100.00
2019-03-04T03:59:21.802Z,100.00
2019-03-04T04:01:51.424Z,100.00
2019-03-04T04:04:21.093Z,100.00
2019-03-04T04:06:50.680Z,100.00
2019-03-04T04:09:20.293Z,100.00
2019-03-04T04:11:49.928Z,100.00
2019-03-04T04:14:19.531Z,100.00
2019-03-04T04:16:49.156Z,100.00
2019-03-04T04:19:18.746Z,100.00
2019-03-04T04:21:48.621Z,100.00
2019-03-04T04:24:18.205Z,100.00
2019-03-04T04:26:47.784Z,100.00
2019-03-04T04:29:17.436Z,100.00
2019-03-04T04:31:47.039Z,100.00
2019-03-04T04:34:16.680Z,100.00
2019-03-04T04:36:46.282Z,100.00
2019-03-04T04:39:15.888Z,100.00
2019-03-04T04:41:45.533Z,100.00
2019-03-04T04:44:15.141Z,100.00
2019-03-04T04:47:03.057Z,100.00
2019-03-04T04:49:34.037Z,100.00
2019-03-04T04:52:03.654Z,100.00
2019-03-04T04:54:33.222Z,100.00
2019-03-04T04:57:02.891Z,100.00
2019-03-04T04:59:32.509Z,100.00
2019-03-04T05:02:02.157Z,100.00
2019-03-04T05:04:31.771Z,100.00
2019-03-04T05:07:01.367Z,100.00
2019-03-04T05:09:31.015Z,100.00
2019-03-04T05:12:00.599Z,100.00
2019-03-04T05:14:30.197Z,100.00
2019-03-04T05:16:59.962Z,100.00
2019-03-04T05:19:29.580Z,100.00
2019-03-04T05:21:59.212Z,100.00
2019-03-04T05:24:29.602Z,97.85
2019-03-04T05:26:59.303Z,95.49
2019-03-04T05:29:28.939Z,85.14
2019-03-04T05:31:58.594Z,79.56
2019-03-04T05:34:28.242Z,87.21
2019-03-04T05:36:57.867Z,94.71
2019-03-04T05:39:27.451Z,95.29
2019-03-04T05:41:57.139Z,96.56
2019-03-04T05:44:26.711Z,93.96
2019-03-04T05:46:56.337Z,95.77
2019-03-04T05:49:25.982Z,88.59
2019-03-04T05:51:55.604Z,79.51
2019-03-04T05:54:25.203Z,77.04
2019-03-04T05:56:54.794Z,75.27
2019-03-04T05:59:24.446Z,88.85
2019-03-04T06:02:04.687Z,83.51
2019-03-04T06:04:34.515Z,84.45
2019-03-04T06:07:10.837Z,82.50
2019-03-04T06:09:40.552Z,83.75
2019-03-04T06:12:10.329Z,79.04
2019-03-04T06:14:39.959Z,82.20
2019-03-04T06:17:09.677Z,86.75
2019-03-04T06:19:39.350Z,80.54
2019-03-04T06:22:09.033Z,80.74
2019-03-04T06:24:38.747Z,78.94
2019-03-04T06:27:08.511Z,73.37
2019-03-04T06:29:38.157Z,72.78
2019-03-04T06:32:07.940Z,79.43
2019-03-04T06:34:37.594Z,76.38
2019-03-04T06:37:07.346Z,69.67
2019-03-04T06:39:37.051Z,71.83
2019-03-04T06:42:06.725Z,70.52
2019-03-04T06:44:36.335Z,74.37
2019-03-04T06:47:05.968Z,82.19
2019-03-04T06:49:35.742Z,85.49
2019-03-04T06:52:05.676Z,85.82
2019-03-04T06:54:59.930Z,90.83
2019-03-04T06:57:33.367Z,91.63
2019-03-04T07:00:51.175Z,94.14
2019-03-04T07:03:29.353Z,89.85
2019-03-04T07:05:58.984Z,95.03
2019-03-04T07:08:59.617Z,88.18
2019-03-04T07:11:31.200Z,88.41
2019-03-04T07:14:03.487Z,87.26
2019-03-04T07:16:33.588Z,91.88
2019-03-04T07:19:17.116Z,93.65
2019-03-04T07:21:47.093Z,89.32
2019-03-04T07:24:18.196Z,89.76
2019-03-04T07:26:48.011Z,91.68
2019-03-04T07:29:19.408Z,90.65
2019-03-04T07:31:49.853Z,80.40
2019-03-04T07:34:21.944Z,79.00
2019-03-04T07:36:55.600Z,82.88
2019-03-04T07:39:53.713Z,80.43
2019-03-04T07:42:25.611Z,84.75
2019-03-04T07:44:55.510Z,85.95
2019-03-04T07:47:36.402Z,85.31
2019-03-04T07:50:16.470Z,82.76
2019-03-04T07:52:46.292Z,80.34
2019-03-04T07:55:16.332Z,75.94
2019-03-04T07:57:52.120Z,79.11
2019-03-04T08:00:21.722Z,80.56
2019-03-04T08:02:51.437Z,80.21
2019-03-04T08:05:29.969Z,75.28
2019-03-04T08:08:11.550Z,71.30
2019-03-04T08:10:55.670Z,69.36
2019-03-04T08:13:42.526Z,73.68
2019-03-04T08:16:51.349Z,71.54
2019-03-04T08:19:21.082Z,68.80
2019-03-04T08:21:50.683Z,67.16
2019-03-04T08:24:20.362Z,67.14
2019-03-04T08:26:50.139Z,64.10
2019-03-04T08:29:19.867Z,63.70
2019-03-04T08:31:52.538Z,68.15
2019-03-04T08:34:30.790Z,68.40
2019-03-04T08:37:42.940Z,65.91
2019-03-04T08:40:13.673Z,64.09
2019-03-04T08:42:49.597Z,65.58
2019-03-04T08:45:21.695Z,64.16
2019-03-04T08:47:51.418Z,64.80
2019-03-04T08:50:21.071Z,64.28
2019-03-04T08:52:50.624Z,62.87
2019-03-04T08:55:21.783Z,64.77
2019-03-04T08:57:51.792Z,61.26
2019-03-04T09:00:24.356Z,66.84
2019-03-04T09:02:54.123Z,63.93
2019-03-04T09:05:23.851Z,62.69
2019-03-04T09:07:53.748Z,58.88
2019-03-04T09:10:25.461Z,55.89
2019-03-04T09:12:55.142Z,54.28
2019-03-04T09:15:25.515Z,59.79
2019-03-04T09:17:55.225Z,55.27
2019-03-04T09:20:25.411Z,54.00
2019-03-04T09:22:55.437Z,50.50
2019-03-04T09:25:45.582Z,48.74
2019-03-04T09:28:15.230Z,51.16
2019-03-04T09:30:44.980Z,58.38
2019-03-04T09:33:14.668Z,51.21
2019-03-04T09:35:44.385Z,50.15
2019-03-04T09:38:14.061Z,51.47
2019-03-04T09:40:43.859Z,55.99
2019-03-04T09:43:13.547Z,51.11
2019-03-04T09:45:43.308Z,53.45
2019-03-04T09:48:13.487Z,49.29
2019-03-04T09:50:43.125Z,46.06
2019-03-04T09:53:13.002Z,45.71
2019-03-04T09:55:42.688Z,45.82
2019-03-04T09:58:12.338Z,51.87
2019-03-04T10:00:55.305Z,49.10
2019-03-04T10:03:59.119Z,46.82
2019-03-04T10:06:44.560Z,46.88
2019-03-04T10:09:36.764Z,46.24
2019-03-04T10:12:39.037Z,43.64
2019-03-04T10:15:52.742Z,43.80
2019-03-04T10:18:44.311Z,45.38
2019-03-04T10:21:53.620Z,44.07
2019-03-04T10:24:59.493Z,42.68
2019-03-04T10:27:50.480Z,47.29
2019-03-04T10:30:36.709Z,44.52
2019-03-04T10:33:46.407Z,45.37
2019-03-04T10:36:52.479Z,45.34
2019-03-04T10:40:01.001Z,45.60
2019-03-04T10:43:29.572Z,48.92
2019-03-04T10:46:15.105Z,43.86
2019-03-04T10:48:44.762Z,43.37
2019-03-04T10:51:14.495Z,45.94
2019-03-04T10:53:44.101Z,44.05
2019-03-04T10:56:13.722Z,42.98
2019-03-04T10:58:43.342Z,44.16
2019-03-04T11:01:13.176Z,42.76
2019-03-04T11:03:42.835Z,39.77
2019-03-04T11:06:12.507Z,42.61
2019-03-04T11:08:42.128Z,42.90
2019-03-04T11:11:11.885Z,42.72
2019-03-04T11:13:41.487Z,40.23
2019-03-04T11:16:11.150Z,38.04
2019-03-04T11:18:40.754Z,37.77
2019-03-04T11:21:10.519Z,37.83
2019-03-04T11:23:40.143Z,37.72
2019-03-04T11:26:09.814Z,38.27
2019-03-04T11:28:39.609Z,38.04
2019-03-04T11:31:09.379Z,39.15
2019-03-04T11:33:39.063Z,38.51
2019-03-04T11:36:08.700Z,38.67
2019-03-04T11:38:44.033Z,37.73
2019-03-04T11:41:16.930Z,37.04
2019-03-04T11:43:46.783Z,35.87
2019-03-04T11:46:18.413Z,36.57
2019-03-04T11:48:48.096Z,37.27
2019-03-04T11:51:17.873Z,35.31
2019-03-04T11:53:47.584Z,33.89
2019-03-04T11:56:17.336Z,35.41
2019-03-04T11:58:46.983Z,34.12
2019-03-04T12:01:35.493Z,34.67
2019-03-04T12:04:05.318Z,33.74
2019-03-04T12:06:34.973Z,32.90
2019-03-04T12:09:07.535Z,32.00
2019-03-04T12:11:38.458Z,32.21
2019-03-04T12:14:08.211Z,31.69
2019-03-04T12:16:37.863Z,31.77
2019-03-04T12:19:07.511Z,31.90
2019-03-04T12:21:37.205Z,31.74
2019-03-04T12:24:06.993Z,31.51
2019-03-04T12:26:36.591Z,31.63
2019-03-04T12:29:06.240Z,31.59
2019-03-04T12:31:40.402Z,32.94
2019-03-04T12:34:11.763Z,33.34
2019-03-04T12:36:41.497Z,39.81
2019-03-04T12:39:11.764Z,31.96
2019-03-04T12:41:41.446Z,30.25
2019-03-04T12:44:11.135Z,30.62
2019-03-04T12:46:40.823Z,29.73
2019-03-04T12:49:10.453Z,30.88
2019-03-04T12:51:40.204Z,30.71
2019-03-04T12:54:09.944Z,30.92
2019-03-04T12:56:39.568Z,29.69
2019-03-04T12:59:09.212Z,30.37
2019-03-04T13:01:38.871Z,29.45
2019-03-04T13:04:08.491Z,29.86
2019-03-04T13:06:38.106Z,29.53
2019-03-04T13:09:14.493Z,29.96
2019-03-04T13:11:39.191Z,29.49
2019-03-04T13:14:08.934Z,29.86
2019-03-04T13:16:38.529Z,29.87
2019-03-04T13:19:08.185Z,30.01
2019-03-04T13:21:37.794Z,29.86
2019-03-04T13:24:07.899Z,29.60
2019-03-04T13:26:37.501Z,28.93
2019-03-04T13:29:07.336Z,28.61
2019-03-04T13:31:36.945Z,30.50
2019-03-04T13:34:06.556Z,29.08
2019-03-04T13:36:36.188Z,28.80
2019-03-04T13:39:07.813Z,29.47
2019-03-04T13:41:38.036Z,29.54
2019-03-04T13:44:07.657Z,28.55
2019-03-04T13:46:37.366Z,28.26
2019-03-04T13:49:06.993Z,28.10
2019-03-04T13:51:36.584Z,28.08
2019-03-04T13:54:06.375Z,29.29
2019-03-04T13:56:35.997Z,29.43
2019-03-04T13:59:05.591Z,30.07
2019-03-04T14:01:35.206Z,29.77
2019-03-04T14:04:04.912Z,29.85
2019-03-04T14:06:34.585Z,30.67
2019-03-04T14:09:05.956Z,30.48
2019-03-04T14:11:35.686Z,30.33
2019-03-04T14:14:05.315Z,30.98
2019-03-04T14:16:34.952Z,31.21
2019-03-04T14:19:04.610Z,31.53
2019-03-04T14:21:34.296Z,40.90
2019-03-04T14:24:03.895Z,34.51
2019-03-04T14:26:33.480Z,34.25
2019-03-04T14:29:03.092Z,34.99
2019-03-04T14:31:32.729Z,34.74
2019-03-04T14:34:02.349Z,35.30
2019-03-04T14:36:33.447Z,35.50
2019-03-04T14:39:03.131Z,33.47
2019-03-04T14:41:32.820Z,33.58
2019-03-04T14:44:02.625Z,33.20
2019-03-04T14:46:32.369Z,33.73
2019-03-04T14:49:01.983Z,33.82
2019-03-04T14:51:31.710Z,33.41
2019-03-04T14:54:01.311Z,34.03
2019-03-04T14:56:30.919Z,35.41
2019-03-04T14:59:10.474Z,35.56
2019-03-04T15:01:31.830Z,36.15
2019-03-04T15:04:01.494Z,36.15
2019-03-04T15:06:31.160Z,36.48
2019-03-04T15:09:00.743Z,36.53
2019-03-04T15:11:30.407Z,37.23
2019-03-04T15:14:00.062Z,36.47
2019-03-04T15:16:29.648Z,37.47
2019-03-04T15:18:59.290Z,37.85
2019-03-04T15:21:28.894Z,38.27
2019-03-04T15:23:58.549Z,38.14
2019-03-04T15:26:28.225Z,38.13
2019-03-04T15:28:57.863Z,37.66
2019-03-04T15:31:27.443Z,37.30
2019-03-04T15:33:57.024Z,36.47
2019-03-04T15:36:26.624Z,36.17
2019-03-04T15:38:56.337Z,35.85
2019-03-04T15:41:25.923Z,36.44
2019-03-04T15:43:55.569Z,36.37
2019-03-04T15:46:25.462Z,35.82
2019-03-04T15:48:55.093Z,36.01
2019-03-04T15:51:24.694Z,36.40
2019-03-04T15:53:54.393Z,36.33
2019-03-04T15:56:24.105Z,36.50
2019-03-04T15:58:53.777Z,37.48
2019-03-04T16:01:23.580Z,37.68
2019-03-04T16:03:53.306Z,37.65
2019-03-04T16:06:23.069Z,38.16
2019-03-04T16:08:52.705Z,38.46
2019-03-04T16:11:22.690Z,39.41
2019-03-04T16:13:54.170Z,39.28
2019-03-04T16:16:23.687Z,39.49
2019-03-04T16:18:53.273Z,39.39
2019-03-04T16:21:23.063Z,39.46
2019-03-04T16:23:52.671Z,39.86
2019-03-04T16:26:22.391Z,39.93
2019-03-04T16:28:52.013Z,40.39
2019-03-04T16:31:21.694Z,40.53
2019-03-04T16:33:51.297Z,40.41
2019-03-04T16:36:21.024Z,40.70
2019-03-04T16:38:50.983Z,40.09
2019-03-04T16:41:20.607Z,39.73
2019-03-04T16:43:50.216Z,39.44
2019-03-04T16:46:19.938Z,38.78
2019-03-04T16:48:49.514Z,38.95
2019-03-04T16:51:19.164Z,38.20
2019-03-04T16:53:48.777Z,37.91
2019-03-04T16:56:18.386Z,38.19
2019-03-04T16:58:48.046Z,38.74
2019-03-04T17:01:18.218Z,38.71
2019-03-04T17:03:48.028Z,38.75
2019-03-04T17:06:17.747Z,38.13
2019-03-04T17:08:47.465Z,39.59
2019-03-04T17:11:17.160Z,39.39
2019-03-04T17:13:46.939Z,39.52
2019-03-04T17:16:16.531Z,39.39
2019-03-04T17:18:46.195Z,39.64
2019-03-04T17:21:15.947Z,39.66
2019-03-04T17:23:45.545Z,39.61
2019-03-04T17:26:15.244Z,39.89
2019-03-04T17:28:44.900Z,40.02
2019-03-04T17:31:14.557Z,40.14
2019-03-04T17:33:45.644Z,39.46
2019-03-04T17:36:15.395Z,39.14
2019-03-04T17:38:45.466Z,39.10
2019-03-04T17:41:15.122Z,39.25
2019-03-04T17:43:44.790Z,39.32
2019-03-04T17:46:14.420Z,39.75
2019-03-04T17:48:44.113Z,40.04
2019-03-04T17:51:13.724Z,40.41
2019-03-04T17:53:43.367Z,41.26
2019-03-04T17:56:13.018Z,41.24
2019-03-04T17:58:42.662Z,41.71
2019-03-04T18:01:12.429Z,41.73
2019-03-04T18:03:42.021Z,42.09
2019-03-04T18:06:11.893Z,42.39
2019-03-04T18:08:41.649Z,42.81
2019-03-04T18:11:11.408Z,42.80
2019-03-04T18:13:41.267Z,42.45
2019-03-04T18:16:10.870Z,43.01
2019-03-04T18:18:40.520Z,43.11
2019-03-04T18:21:10.283Z,43.52
2019-03-04T18:23:41.267Z,43.82
2019-03-04T18:26:17.646Z,43.92
2019-03-04T18:29:18.707Z,43.82
2019-03-04T18:32:21.120Z,43.60
2019-03-04T18:35:32.380Z,43.68
2019-03-04T18:39:04.657Z,43.10
2019-03-04T18:41:44.094Z,43.33
2019-03-04T18:45:06.815Z,43.17
2019-03-04T18:47:59.026Z,43.13
2019-03-04T18:50:28.658Z,42.95
2019-03-04T18:52:58.510Z,43.12
2019-03-04T18:55:28.122Z,43.01
2019-03-04T18:57:57.778Z,42.80
2019-03-04T19:00:27.983Z,42.75
2019-03-04T19:02:57.727Z,42.63
2019-03-04T19:05:27.381Z,42.32
2019-03-04T19:07:57.099Z,42.27
2019-03-04T19:10:26.735Z,42.22
2019-03-04T19:12:56.406Z,43.28
2019-03-04T19:15:26.042Z,44.08
2019-03-04T19:17:55.653Z,44.14
2019-03-04T19:20:25.273Z,43.13
2019-03-04T19:22:54.866Z,43.05
2019-03-04T19:25:24.529Z,43.29
2019-03-04T19:27:54.163Z,44.08
2019-03-04T19:30:23.760Z,43.52
2019-03-04T19:32:53.374Z,42.78
2019-03-04T19:35:23.088Z,43.05
2019-03-04T19:37:52.823Z,42.69
2019-03-04T19:40:22.426Z,43.04
2019-03-04T19:42:52.220Z,43.04
2019-03-04T19:45:21.880Z,42.84
2019-03-04T19:47:51.634Z,43.17
2019-03-04T19:50:21.276Z,42.94
2019-03-04T19:52:50.928Z,43.34
2019-03-04T19:55:20.552Z,43.26
2019-03-04T19:57:50.316Z,44.03
2019-03-04T20:00:20.840Z,44.95
2019-03-04T20:02:50.647Z,46.69
2019-03-04T20:05:21.483Z,47.70
2019-03-04T20:07:51.319Z,46.92
2019-03-04T20:10:21.205Z,47.33
2019-03-04T20:12:50.957Z,48.95
2019-03-04T20:15:22.488Z,48.52
2019-03-04T20:17:52.246Z,49.06
2019-03-04T20:20:21.997Z,48.39
2019-03-04T20:22:51.596Z,47.35
2019-03-04T20:25:21.678Z,47.98
2019-03-04T20:27:51.324Z,48.36
2019-03-04T20:30:21.183Z,49.07
2019-03-04T20:32:51.119Z,49.05
2019-03-04T20:35:21.220Z,48.81
2019-03-04T20:37:52.418Z,48.93
2019-03-04T20:40:22.196Z,48.78
2019-03-04T20:42:52.472Z,54.54
2019-03-04T20:45:23.354Z,54.97
2019-03-04T20:47:53.143Z,54.77
2019-03-04T20:50:22.992Z,56.03
2019-03-04T20:52:52.799Z,52.79
2019-03-04T20:55:22.983Z,54.09
2019-03-04T20:57:52.772Z,54.33
2019-03-04T21:00:29.103Z,52.11
2019-03-04T21:02:59.358Z,51.56
2019-03-04T21:05:29.521Z,52.85
2019-03-04T21:07:59.576Z,52.91
2019-03-04T21:10:29.519Z,53.77
2019-03-04T21:13:02.884Z,52.04
2019-03-04T21:15:32.783Z,53.08
2019-03-04T21:18:02.563Z,53.67
2019-03-04T21:20:32.297Z,53.83
2019-03-04T21:23:02.093Z,53.89
2019-03-04T21:25:37.229Z,54.47
2019-03-04T21:28:11.132Z,54.11
2019-03-04T21:31:34.084Z,52.49
2019-03-04T21:34:33.269Z,51.98
2019-03-04T21:37:11.761Z,54.12
2019-03-04T21:39:41.814Z,54.35
2019-03-04T21:42:29.011Z,54.33
2019-03-04T21:45:39.737Z,57.24
2019-03-04T21:48:22.858Z,57.04
2019-03-04T21:51:38.195Z,59.51
2019-03-04T21:54:07.470Z,56.97
2019-03-04T21:57:07.771Z,57.54
2019-03-04T21:59:37.588Z,57.24
2019-03-04T22:02:17.131Z,58.64
2019-03-04T22:04:47.031Z,62.94
2019-03-04T22:07:17.535Z,62.34
2019-03-04T22:09:47.561Z,62.12
2019-03-04T22:12:17.392Z,60.08
2019-03-04T22:14:47.225Z,61.58
2019-03-04T22:17:17.386Z,62.57
2019-03-04T22:19:47.183Z,62.44
2019-03-04T22:22:17.037Z,62.28
2019-03-04T22:24:46.739Z,60.01
2019-03-04T22:27:16.497Z,60.53
2019-03-04T22:29:46.245Z,58.70
2019-03-04T22:32:15.989Z,59.32
2019-03-04T22:34:45.760Z,60.01
2019-03-04T22:37:15.619Z,57.53
2019-03-04T22:39:45.286Z,56.36
2019-03-04T22:42:15.071Z,55.47
2019-03-04T22:44:44.843Z,57.44
2019-03-04T22:47:14.796Z,62.83
2019-03-04T22:49:44.778Z,63.64
2019-03-04T22:52:14.483Z,62.71
2019-03-04T22:54:44.204Z,62.36
2019-03-04T22:57:13.978Z,62.87
2019-03-04T22:59:43.723Z,60.02
2019-03-04T23:02:14.225Z,62.30
2019-03-04T23:05:05.676Z,62.47
2019-03-04T23:07:38.295Z,65.72
2019-03-04T23:10:47.773Z,62.78
2019-03-04T23:13:37.661Z,63.61
2019-03-04T23:16:08.846Z,64.34
2019-03-04T23:18:38.858Z,62.83
2019-03-04T23:21:08.914Z,59.91
2019-03-04T23:23:38.817Z,60.19
2019-03-04T23:26:08.779Z,61.29
2019-03-04T23:28:38.663Z,58.71
2019-03-04T23:31:08.496Z,59.97
2019-03-04T23:33:38.413Z,61.69
2019-03-04T23:36:08.259Z,60.88
2019-03-04T23:38:38.253Z,61.11
2019-03-04T23:41:08.325Z,62.32
2019-03-04T23:43:38.355Z,62.45
2019-03-04T23:46:08.184Z,62.63
2019-03-04T23:48:38.104Z,62.74
2019-03-04T23:51:07.897Z,63.35
2019-03-04T23:53:39.124Z,60.46
2019-03-04T23:56:09.030Z,61.37
2019-03-04T23:58:38.911Z,62.17
